sensor_id;sensor_type;location;lat;lon;timestamp;temperature;humidity
51801;DHT22;37855;53.204;6.568;2024-03-07T00:02:15;5.20;77.10
51801;DHT22;37855;53.204;6.568;2024-03-07T00:04:43;5.10;77.20
51801;DHT22;37855;53.204;6.568;2024-03-07T00:07:09;5.10;77.30
51801;DHT22;37855;53.204;6.568;2024-03-07T00:09:35;5.10;77.20
51801;DHT22;37855;53.204;6.568;2024-03-07T00:12:02;5.10;77.00
51801;DHT22;37855;53.204;6.568;2024-03-07T00:14:27;5.00;77.30
51801;DHT22;37855;53.204;6.568;2024-03-07T00:16:55;5.00;77.20
51801;DHT22;37855;53.204;6.568;2024-03-07T00:19:21;5.00;77.40
51801;DHT22;37855;53.204;6.568;2024-03-07T00:21:47;4.90;77.40
51801;DHT22;37855;53.204;6.568;2024-03-07T00:24:13;5.00;77.40
51801;DHT22;37855;53.204;6.568;2024-03-07T00:26:41;4.90;77.40
51801;DHT22;37855;53.204;6.568;2024-03-07T00:29:11;5.00;77.00
51801;DHT22;37855;53.204;6.568;2024-03-07T00:31:38;5.00;76.90
51801;DHT22;37855;53.204;6.568;2024-03-07T00:34:04;4.90;77.00
51801;DHT22;37855;53.204;6.568;2024-03-07T00:36:30;4.90;76.90
51801;DHT22;37855;53.204;6.568;2024-03-07T00:38:55;4.80;76.80
51801;DHT22;37855;53.204;6.568;2024-03-07T00:41:21;4.80;76.70
51801;DHT22;37855;53.204;6.568;2024-03-07T00:43:47;4.80;77.00
51801;DHT22;37855;53.204;6.568;2024-03-07T00:46:12;4.90;76.90
51801;DHT22;37855;53.204;6.568;2024-03-07T00:48:38;4.90;76.90
51801;DHT22;37855;53.204;6.568;2024-03-07T00:51:04;4.90;76.70
51801;DHT22;37855;53.204;6.568;2024-03-07T00:53:31;4.90;76.10
51801;DHT22;37855;53.204;6.568;2024-03-07T00:55:57;4.80;76.30
51801;DHT22;37855;53.204;6.568;2024-03-07T00:58:22;4.90;76.20
51801;DHT22;37855;53.204;6.568;2024-03-07T01:00:48;4.80;76.10
51801;DHT22;37855;53.204;6.568;2024-03-07T01:03:14;4.80;76.40
51801;DHT22;37855;53.204;6.568;2024-03-07T01:05:43;4.80;76.30
51801;DHT22;37855;53.204;6.568;2024-03-07T01:08:09;4.80;76.00
51801;DHT22;37855;53.204;6.568;2024-03-07T01:10:35;4.70;76.30
51801;DHT22;37855;53.204;6.568;2024-03-07T01:13:00;4.70;76.40
51801;DHT22;37855;53.204;6.568;2024-03-07T01:15:28;4.70;76.60
51801;DHT22;37855;53.204;6.568;2024-03-07T01:17:53;4.60;76.50
51801;DHT22;37855;53.204;6.568;2024-03-07T01:20:19;4.60;76.60
51801;DHT22;37855;53.204;6.568;2024-03-07T01:22:45;4.70;76.80
51801;DHT22;37855;53.204;6.568;2024-03-07T01:25:11;4.60;76.70
51801;DHT22;37855;53.204;6.568;2024-03-07T01:27:38;4.60;76.40
51801;DHT22;37855;53.204;6.568;2024-03-07T01:30:04;4.60;76.70
51801;DHT22;37855;53.204;6.568;2024-03-07T01:32:33;4.50;76.70
51801;DHT22;37855;53.204;6.568;2024-03-07T01:34:59;4.40;77.00
51801;DHT22;37855;53.204;6.568;2024-03-07T01:37:27;4.40;77.00
51801;DHT22;37855;53.204;6.568;2024-03-07T01:39:55;4.40;77.00
51801;DHT22;37855;53.204;6.568;2024-03-07T01:42:20;4.30;77.00
51801;DHT22;37855;53.204;6.568;2024-03-07T01:44:46;4.20;77.20
51801;DHT22;37855;53.204;6.568;2024-03-07T01:47:12;4.20;77.30
51801;DHT22;37855;53.204;6.568;2024-03-07T01:49:39;4.20;77.30
51801;DHT22;37855;53.204;6.568;2024-03-07T01:52:04;4.10;77.40
51801;DHT22;37855;53.204;6.568;2024-03-07T01:54:31;4.20;77.40
51801;DHT22;37855;53.204;6.568;2024-03-07T01:57:01;4.10;77.30
51801;DHT22;37855;53.204;6.568;2024-03-07T01:59:29;4.00;77.30
51801;DHT22;37855;53.204;6.568;2024-03-07T02:01:56;4.00;77.40
51801;DHT22;37855;53.204;6.568;2024-03-07T02:04:22;3.90;77.50
51801;DHT22;37855;53.204;6.568;2024-03-07T02:06:49;3.80;77.70
51801;DHT22;37855;53.204;6.568;2024-03-07T02:09:15;3.80;77.80
51801;DHT22;37855;53.204;6.568;2024-03-07T02:11:41;3.70;78.00
51801;DHT22;37855;53.204;6.568;2024-03-07T02:14:06;3.70;78.10
51801;DHT22;37855;53.204;6.568;2024-03-07T02:16:32;3.70;78.20
51801;DHT22;37855;53.204;6.568;2024-03-07T02:18:58;3.80;77.90
51801;DHT22;37855;53.204;6.568;2024-03-07T02:21:25;3.80;77.70
51801;DHT22;37855;53.204;6.568;2024-03-07T02:23:50;3.70;77.80
51801;DHT22;37855;53.204;6.568;2024-03-07T02:26:16;3.60;77.90
51801;DHT22;37855;53.204;6.568;2024-03-07T02:28:42;3.50;78.40
51801;DHT22;37855;53.204;6.568;2024-03-07T02:31:07;3.50;78.10
51801;DHT22;37855;53.204;6.568;2024-03-07T02:33:33;3.40;78.40
51801;DHT22;37855;53.204;6.568;2024-03-07T02:35:59;3.40;78.70
51801;DHT22;37855;53.204;6.568;2024-03-07T02:38:24;3.40;78.60
51801;DHT22;37855;53.204;6.568;2024-03-07T02:40:50;3.40;78.80
51801;DHT22;37855;53.204;6.568;2024-03-07T02:43:15;3.30;78.90
51801;DHT22;37855;53.204;6.568;2024-03-07T02:45:41;3.30;79.00
51801;DHT22;37855;53.204;6.568;2024-03-07T02:48:07;3.30;79.20
51801;DHT22;37855;53.204;6.568;2024-03-07T02:50:37;3.30;79.20
51801;DHT22;37855;53.204;6.568;2024-03-07T02:53:06;3.20;79.50
51801;DHT22;37855;53.204;6.568;2024-03-07T02:55:32;3.10;79.70
51801;DHT22;37855;53.204;6.568;2024-03-07T02:57:58;3.10;79.90
51801;DHT22;37855;53.204;6.568;2024-03-07T03:00:27;3.10;79.80
51801;DHT22;37855;53.204;6.568;2024-03-07T03:02:55;3.10;79.70
51801;DHT22;37855;53.204;6.568;2024-03-07T03:05:21;3.10;79.60
51801;DHT22;37855;53.204;6.568;2024-03-07T03:07:48;3.10;79.60
51801;DHT22;37855;53.204;6.568;2024-03-07T03:10:24;3.10;79.50
51801;DHT22;37855;53.204;6.568;2024-03-07T03:12:58;3.10;79.40
51801;DHT22;37855;53.204;6.568;2024-03-07T03:15:24;3.00;79.70
51801;DHT22;37855;53.204;6.568;2024-03-07T03:17:50;3.00;79.80
51801;DHT22;37855;53.204;6.568;2024-03-07T03:20:17;3.00;80.20
51801;DHT22;37855;53.204;6.568;2024-03-07T03:23:02;2.90;80.10
51801;DHT22;37855;53.204;6.568;2024-03-07T03:25:31;2.90;80.30
51801;DHT22;37855;53.204;6.568;2024-03-07T03:28:01;2.90;80.40
51801;DHT22;37855;53.204;6.568;2024-03-07T03:30:27;2.80;80.50
51801;DHT22;37855;53.204;6.568;2024-03-07T03:32:54;2.80;80.50
51801;DHT22;37855;53.204;6.568;2024-03-07T03:35:22;2.80;80.70
51801;DHT22;37855;53.204;6.568;2024-03-07T03:37:48;2.70;80.70
51801;DHT22;37855;53.204;6.568;2024-03-07T03:40:17;2.80;80.70
51801;DHT22;37855;53.204;6.568;2024-03-07T03:42:43;2.80;80.40
51801;DHT22;37855;53.204;6.568;2024-03-07T03:45:10;2.80;80.30
51801;DHT22;37855;53.204;6.568;2024-03-07T03:47:40;2.70;80.50
51801;DHT22;37855;53.204;6.568;2024-03-07T03:50:08;2.70;80.60
51801;DHT22;37855;53.204;6.568;2024-03-07T03:52:34;2.70;80.50
51801;DHT22;37855;53.204;6.568;2024-03-07T03:55:03;2.70;80.40
51801;DHT22;37855;53.204;6.568;2024-03-07T03:57:32;2.70;80.30
51801;DHT22;37855;53.204;6.568;2024-03-07T04:00:02;2.70;80.20
51801;DHT22;37855;53.204;6.568;2024-03-07T04:02:35;2.80;80.00
51801;DHT22;37855;53.204;6.568;2024-03-07T04:05:03;2.70;80.00
51801;DHT22;37855;53.204;6.568;2024-03-07T04:07:29;2.70;80.00
51801;DHT22;37855;53.204;6.568;2024-03-07T04:09:56;2.70;80.10
51801;DHT22;37855;53.204;6.568;2024-03-07T04:12:23;2.70;80.00
51801;DHT22;37855;53.204;6.568;2024-03-07T04:14:49;2.60;80.20
51801;DHT22;37855;53.204;6.568;2024-03-07T04:17:15;2.70;80.20
51801;DHT22;37855;53.204;6.568;2024-03-07T04:19:42;2.60;80.30
51801;DHT22;37855;53.204;6.568;2024-03-07T04:22:08;2.60;80.40
51801;DHT22;37855;53.204;6.568;2024-03-07T04:24:34;2.60;80.50
51801;DHT22;37855;53.204;6.568;2024-03-07T04:27:01;2.50;80.80
51801;DHT22;37855;53.204;6.568;2024-03-07T04:29:31;2.60;80.60
51801;DHT22;37855;53.204;6.568;2024-03-07T04:31:57;2.50;80.50
51801;DHT22;37855;53.204;6.568;2024-03-07T04:34:23;2.50;80.60
51801;DHT22;37855;53.204;6.568;2024-03-07T04:36:49;2.60;80.70
51801;DHT22;37855;53.204;6.568;2024-03-07T04:39:14;2.60;80.40
51801;DHT22;37855;53.204;6.568;2024-03-07T04:41:51;2.60;80.30
51801;DHT22;37855;53.204;6.568;2024-03-07T04:44:18;2.50;79.90
51801;DHT22;37855;53.204;6.568;2024-03-07T04:46:45;2.50;80.00
51801;DHT22;37855;53.204;6.568;2024-03-07T04:49:10;2.50;80.10
51801;DHT22;37855;53.204;6.568;2024-03-07T04:51:36;2.40;80.00
51801;DHT22;37855;53.204;6.568;2024-03-07T04:54:02;2.40;79.90
51801;DHT22;37855;53.204;6.568;2024-03-07T04:56:27;2.40;79.90
51801;DHT22;37855;53.204;6.568;2024-03-07T04:58:53;2.50;79.70
51801;DHT22;37855;53.204;6.568;2024-03-07T05:01:20;2.50;79.90
51801;DHT22;37855;53.204;6.568;2024-03-07T05:03:46;2.40;80.00
51801;DHT22;37855;53.204;6.568;2024-03-07T05:06:11;2.30;80.30
51801;DHT22;37855;53.204;6.568;2024-03-07T05:08:37;2.30;80.70
51801;DHT22;37855;53.204;6.568;2024-03-07T05:11:03;2.20;81.00
51801;DHT22;37855;53.204;6.568;2024-03-07T05:13:30;2.20;80.90
51801;DHT22;37855;53.204;6.568;2024-03-07T05:15:59;2.20;81.40
51801;DHT22;37855;53.204;6.568;2024-03-07T05:18:25;2.20;81.10
51801;DHT22;37855;53.204;6.568;2024-03-07T05:20:50;2.10;81.70
51801;DHT22;37855;53.204;6.568;2024-03-07T05:23:16;2.10;81.70
51801;DHT22;37855;53.204;6.568;2024-03-07T05:25:42;2.10;81.80
51801;DHT22;37855;53.204;6.568;2024-03-07T05:28:12;2.10;81.70
51801;DHT22;37855;53.204;6.568;2024-03-07T05:30:38;2.10;81.60
51801;DHT22;37855;53.204;6.568;2024-03-07T05:33:06;2.00;81.70
51801;DHT22;37855;53.204;6.568;2024-03-07T05:35:32;2.00;81.90
51801;DHT22;37855;53.204;6.568;2024-03-07T05:37:58;2.00;82.30
51801;DHT22;37855;53.204;6.568;2024-03-07T05:40:25;1.90;82.20
51801;DHT22;37855;53.204;6.568;2024-03-07T05:42:50;1.90;82.30
51801;DHT22;37855;53.204;6.568;2024-03-07T05:45:16;1.90;82.50
51801;DHT22;37855;53.204;6.568;2024-03-07T05:47:43;1.90;82.80
51801;DHT22;37855;53.204;6.568;2024-03-07T05:50:09;1.80;82.80
51801;DHT22;37855;53.204;6.568;2024-03-07T05:52:34;1.90;82.70
51801;DHT22;37855;53.204;6.568;2024-03-07T05:55:00;1.80;83.00
51801;DHT22;37855;53.204;6.568;2024-03-07T05:57:26;1.80;83.00
51801;DHT22;37855;53.204;6.568;2024-03-07T05:59:51;1.80;83.20
51801;DHT22;37855;53.204;6.568;2024-03-07T06:02:17;1.80;82.90
51801;DHT22;37855;53.204;6.568;2024-03-07T06:04:43;1.80;82.80
51801;DHT22;37855;53.204;6.568;2024-03-07T06:07:09;1.80;83.20
51801;DHT22;37855;53.204;6.568;2024-03-07T06:09:40;1.70;83.60
51801;DHT22;37855;53.204;6.568;2024-03-07T06:12:06;1.80;83.40
51801;DHT22;37855;53.204;6.568;2024-03-07T06:14:34;1.90;83.00
51801;DHT22;37855;53.204;6.568;2024-03-07T06:17:00;1.80;82.90
51801;DHT22;37855;53.204;6.568;2024-03-07T06:19:26;1.70;83.10
51801;DHT22;37855;53.204;6.568;2024-03-07T06:21:52;1.70;83.40
51801;DHT22;37855;53.204;6.568;2024-03-07T06:24:19;1.70;83.60
51801;DHT22;37855;53.204;6.568;2024-03-07T06:26:46;1.70;83.70
51801;DHT22;37855;53.204;6.568;2024-03-07T06:29:17;1.70;83.70
51801;DHT22;37855;53.204;6.568;2024-03-07T06:31:44;1.80;83.50
51801;DHT22;37855;53.204;6.568;2024-03-07T06:34:14;1.80;83.30
51801;DHT22;37855;53.204;6.568;2024-03-07T06:36:40;1.80;83.30
51801;DHT22;37855;53.204;6.568;2024-03-07T06:39:09;1.70;83.90
51801;DHT22;37855;53.204;6.568;2024-03-07T06:41:38;1.60;84.80
51801;DHT22;37855;53.204;6.568;2024-03-07T06:44:04;1.40;85.90
51801;DHT22;37855;53.204;6.568;2024-03-07T06:46:30;1.40;86.10
51801;DHT22;37855;53.204;6.568;2024-03-07T06:48:57;1.50;85.30
51801;DHT22;37855;53.204;6.568;2024-03-07T06:51:23;1.40;85.80
51801;DHT22;37855;53.204;6.568;2024-03-07T06:53:50;1.30;86.40
51801;DHT22;37855;53.204;6.568;2024-03-07T06:56:19;1.20;87.10
51801;DHT22;37855;53.204;6.568;2024-03-07T06:58:44;1.20;87.30
51801;DHT22;37855;53.204;6.568;2024-03-07T07:01:13;1.20;87.40
51801;DHT22;37855;53.204;6.568;2024-03-07T07:03:41;1.20;87.50
51801;DHT22;37855;53.204;6.568;2024-03-07T07:06:09;1.20;87.90
51801;DHT22;37855;53.204;6.568;2024-03-07T07:08:35;1.30;87.90
51801;DHT22;37855;53.204;6.568;2024-03-07T07:11:01;1.30;88.10
51801;DHT22;37855;53.204;6.568;2024-03-07T07:13:29;1.20;88.30
51801;DHT22;37855;53.204;6.568;2024-03-07T07:15:55;1.20;88.40
51801;DHT22;37855;53.204;6.568;2024-03-07T07:18:20;1.20;88.60
51801;DHT22;37855;53.204;6.568;2024-03-07T07:20:49;1.30;88.60
51801;DHT22;37855;53.204;6.568;2024-03-07T07:23:18;1.20;88.50
51801;DHT22;37855;53.204;6.568;2024-03-07T07:25:43;1.20;88.50
51801;DHT22;37855;53.204;6.568;2024-03-07T07:28:09;1.30;88.60
51801;DHT22;37855;53.204;6.568;2024-03-07T07:30:36;1.40;88.40
51801;DHT22;37855;53.204;6.568;2024-03-07T07:33:02;1.40;88.00
51801;DHT22;37855;53.204;6.568;2024-03-07T07:35:28;1.50;87.70
51801;DHT22;37855;53.204;6.568;2024-03-07T07:37:56;1.50;87.70
51801;DHT22;37855;53.204;6.568;2024-03-07T07:40:25;1.50;87.70
51801;DHT22;37855;53.204;6.568;2024-03-07T07:42:53;1.50;87.80
51801;DHT22;37855;53.204;6.568;2024-03-07T07:45:21;1.50;87.80
51801;DHT22;37855;53.204;6.568;2024-03-07T07:47:51;1.50;87.90
51801;DHT22;37855;53.204;6.568;2024-03-07T07:50:19;1.60;87.90
51801;DHT22;37855;53.204;6.568;2024-03-07T07:52:59;1.60;87.90
51801;DHT22;37855;53.204;6.568;2024-03-07T07:55:28;1.70;88.00
51801;DHT22;37855;53.204;6.568;2024-03-07T07:57:59;1.80;87.90
51801;DHT22;37855;53.204;6.568;2024-03-07T08:00:27;1.70;87.40
51801;DHT22;37855;53.204;6.568;2024-03-07T08:03:04;1.70;87.10
51801;DHT22;37855;53.204;6.568;2024-03-07T08:05:35;1.70;87.10
51801;DHT22;37855;53.204;6.568;2024-03-07T08:08:06;1.80;87.50
51801;DHT22;37855;53.204;6.568;2024-03-07T08:10:33;1.90;87.40
51801;DHT22;37855;53.204;6.568;2024-03-07T08:13:01;2.00;87.20
51801;DHT22;37855;53.204;6.568;2024-03-07T08:15:29;2.10;86.70
51801;DHT22;37855;53.204;6.568;2024-03-07T08:17:55;2.20;86.80
51801;DHT22;37855;53.204;6.568;2024-03-07T08:20:22;2.00;86.40
51801;DHT22;37855;53.204;6.568;2024-03-07T08:22:51;2.10;86.30
51801;DHT22;37855;53.204;6.568;2024-03-07T08:25:19;2.10;86.40
51801;DHT22;37855;53.204;6.568;2024-03-07T08:27:47;2.20;86.40
51801;DHT22;37855;53.204;6.568;2024-03-07T08:30:14;2.10;86.20
51801;DHT22;37855;53.204;6.568;2024-03-07T08:32:44;2.20;85.80
51801;DHT22;37855;53.204;6.568;2024-03-07T08:35:10;2.00;86.00
51801;DHT22;37855;53.204;6.568;2024-03-07T08:37:41;2.00;86.40
51801;DHT22;37855;53.204;6.568;2024-03-07T08:40:07;2.00;86.60
51801;DHT22;37855;53.204;6.568;2024-03-07T08:42:35;2.00;86.80
51801;DHT22;37855;53.204;6.568;2024-03-07T08:45:02;2.10;86.60
51801;DHT22;37855;53.204;6.568;2024-03-07T08:47:31;2.20;86.50
51801;DHT22;37855;53.204;6.568;2024-03-07T08:50:00;2.30;86.40
51801;DHT22;37855;53.204;6.568;2024-03-07T08:52:26;2.20;85.50
51801;DHT22;37855;53.204;6.568;2024-03-07T08:54:53;2.10;85.50
51801;DHT22;37855;53.204;6.568;2024-03-07T08:57:19;2.00;85.80
51801;DHT22;37855;53.204;6.568;2024-03-07T08:59:46;2.00;86.50
51801;DHT22;37855;53.204;6.568;2024-03-07T09:02:11;2.20;86.50
51801;DHT22;37855;53.204;6.568;2024-03-07T09:04:38;2.20;85.50
51801;DHT22;37855;53.204;6.568;2024-03-07T09:07:04;2.20;85.40
51801;DHT22;37855;53.204;6.568;2024-03-07T09:09:32;2.10;85.20
51801;DHT22;37855;53.204;6.568;2024-03-07T09:11:57;2.20;85.60
51801;DHT22;37855;53.204;6.568;2024-03-07T09:14:23;2.20;85.50
51801;DHT22;37855;53.204;6.568;2024-03-07T09:19:16;2.20;85.70
51801;DHT22;37855;53.204;6.568;2024-03-07T09:21:46;2.30;85.50
51801;DHT22;37855;53.204;6.568;2024-03-07T09:24:15;2.30;84.50
51801;DHT22;37855;53.204;6.568;2024-03-07T09:26:41;2.30;84.80
51801;DHT22;37855;53.204;6.568;2024-03-07T09:29:07;2.40;85.00
51801;DHT22;37855;53.204;6.568;2024-03-07T09:31:33;2.50;84.40
51801;DHT22;37855;53.204;6.568;2024-03-07T09:33:59;2.40;83.90
51801;DHT22;37855;53.204;6.568;2024-03-07T09:36:25;2.50;83.90
51801;DHT22;37855;53.204;6.568;2024-03-07T09:38:52;2.30;84.00
51801;DHT22;37855;53.204;6.568;2024-03-07T09:41:19;2.40;84.10
51801;DHT22;37855;53.204;6.568;2024-03-07T09:43:48;2.40;84.20
51801;DHT22;37855;53.204;6.568;2024-03-07T09:46:18;2.30;84.10
51801;DHT22;37855;53.204;6.568;2024-03-07T09:48:44;2.40;83.90
51801;DHT22;37855;53.204;6.568;2024-03-07T09:51:10;2.40;83.80
51801;DHT22;37855;53.204;6.568;2024-03-07T09:53:37;2.50;83.90
51801;DHT22;37855;53.204;6.568;2024-03-07T09:56:04;2.50;83.60
51801;DHT22;37855;53.204;6.568;2024-03-07T09:58:32;2.50;83.50
51801;DHT22;37855;53.204;6.568;2024-03-07T10:01:02;2.50;83.60
51801;DHT22;37855;53.204;6.568;2024-03-07T10:03:29;2.70;83.60
51801;DHT22;37855;53.204;6.568;2024-03-07T10:05:56;2.80;83.40
51801;DHT22;37855;53.204;6.568;2024-03-07T10:08:22;2.90;82.30
51801;DHT22;37855;53.204;6.568;2024-03-07T10:10:50;2.90;82.70
51801;DHT22;37855;53.204;6.568;2024-03-07T10:13:16;3.00;82.70
51801;DHT22;37855;53.204;6.568;2024-03-07T10:15:46;3.00;82.30
51801;DHT22;37855;53.204;6.568;2024-03-07T10:18:13;3.10;82.50
51801;DHT22;37855;53.204;6.568;2024-03-07T10:20:43;3.20;82.50
51801;DHT22;37855;53.204;6.568;2024-03-07T10:23:19;3.30;82.40
51801;DHT22;37855;53.204;6.568;2024-03-07T10:25:46;3.30;82.10
51801;DHT22;37855;53.204;6.568;2024-03-07T10:28:12;3.30;81.40
51801;DHT22;37855;53.204;6.568;2024-03-07T10:30:44;3.30;81.70
51801;DHT22;37855;53.204;6.568;2024-03-07T10:33:12;3.40;82.00
51801;DHT22;37855;53.204;6.568;2024-03-07T10:35:39;3.50;82.20
51801;DHT22;37855;53.204;6.568;2024-03-07T10:40:47;3.60;82.00
51801;DHT22;37855;53.204;6.568;2024-03-07T10:43:13;3.60;80.70
51801;DHT22;37855;53.204;6.568;2024-03-07T10:45:47;3.50;80.40
51801;DHT22;37855;53.204;6.568;2024-03-07T10:48:13;3.40;80.50
51801;DHT22;37855;53.204;6.568;2024-03-07T10:51:11;3.40;80.70
51801;DHT22;37855;53.204;6.568;2024-03-07T10:54:05;3.50;80.80
51801;DHT22;37855;53.204;6.568;2024-03-07T10:59:26;3.40;79.60
51801;DHT22;37855;53.204;6.568;2024-03-07T11:04:40;3.30;80.00
51801;DHT22;37855;53.204;6.568;2024-03-07T11:07:07;3.40;80.00
51801;DHT22;37855;53.204;6.568;2024-03-07T11:09:34;3.50;79.70
51801;DHT22;37855;53.204;6.568;2024-03-07T11:12:01;3.50;79.60
51801;DHT22;37855;53.204;6.568;2024-03-07T11:14:34;3.50;79.70
51801;DHT22;37855;53.204;6.568;2024-03-07T11:17:01;3.50;79.60
51801;DHT22;37855;53.204;6.568;2024-03-07T11:19:32;3.60;79.90
51801;DHT22;37855;53.204;6.568;2024-03-07T11:22:02;3.70;79.70
51801;DHT22;37855;53.204;6.568;2024-03-07T11:24:29;3.80;79.50
51801;DHT22;37855;53.204;6.568;2024-03-07T11:26:57;3.60;80.10
51801;DHT22;37855;53.204;6.568;2024-03-07T11:29:46;3.70;80.10
51801;DHT22;37855;53.204;6.568;2024-03-07T11:32:15;3.90;79.90
51801;DHT22;37855;53.204;6.568;2024-03-07T11:34:43;4.00;79.50
51801;DHT22;37855;53.204;6.568;2024-03-07T11:37:17;4.20;79.40
51801;DHT22;37855;53.204;6.568;2024-03-07T11:39:44;4.20;78.80
51801;DHT22;37855;53.204;6.568;2024-03-07T11:44:48;4.30;78.30
51801;DHT22;37855;53.204;6.568;2024-03-07T11:47:14;4.40;78.40
51801;DHT22;37855;53.204;6.568;2024-03-07T11:49:40;4.40;78.00
51801;DHT22;37855;53.204;6.568;2024-03-07T11:52:05;4.50;78.60
51801;DHT22;37855;53.204;6.568;2024-03-07T11:54:39;4.60;78.10
51801;DHT22;37855;53.204;6.568;2024-03-07T11:57:18;4.60;77.60
51801;DHT22;37855;53.204;6.568;2024-03-07T11:59:58;4.60;78.10
51801;DHT22;37855;53.204;6.568;2024-03-07T12:02:27;4.60;78.20
51801;DHT22;37855;53.204;6.568;2024-03-07T12:04:53;4.70;77.80
51801;DHT22;37855;53.204;6.568;2024-03-07T12:07:22;4.70;77.50
51801;DHT22;37855;53.204;6.568;2024-03-07T12:09:49;4.70;77.60
51801;DHT22;37855;53.204;6.568;2024-03-07T12:12:20;4.80;77.30
51801;DHT22;37855;53.204;6.568;2024-03-07T12:14:55;4.90;77.40
51801;DHT22;37855;53.204;6.568;2024-03-07T12:17:22;5.00;77.30
51801;DHT22;37855;53.204;6.568;2024-03-07T12:19:48;5.10;77.10
51801;DHT22;37855;53.204;6.568;2024-03-07T12:22:22;5.30;76.90
51801;DHT22;37855;53.204;6.568;2024-03-07T12:25:01;5.40;76.40
51801;DHT22;37855;53.204;6.568;2024-03-07T12:27:28;5.40;76.10
51801;DHT22;37855;53.204;6.568;2024-03-07T12:29:54;5.50;76.10
51801;DHT22;37855;53.204;6.568;2024-03-07T12:32:19;5.50;75.80
51801;DHT22;37855;53.204;6.568;2024-03-07T12:34:46;5.50;75.90
51801;DHT22;37855;53.204;6.568;2024-03-07T12:37:13;5.50;76.10
51801;DHT22;37855;53.204;6.568;2024-03-07T12:39:45;5.50;75.80
51801;DHT22;37855;53.204;6.568;2024-03-07T12:42:17;5.60;76.30
51801;DHT22;37855;53.204;6.568;2024-03-07T12:44:44;5.60;76.00
51801;DHT22;37855;53.204;6.568;2024-03-07T12:47:14;5.70;76.40
51801;DHT22;37855;53.204;6.568;2024-03-07T12:49:40;5.70;75.80
51801;DHT22;37855;53.204;6.568;2024-03-07T12:52:07;5.70;76.30
51801;DHT22;37855;53.204;6.568;2024-03-07T12:54:36;5.70;76.50
51801;DHT22;37855;53.204;6.568;2024-03-07T12:57:12;5.80;76.50
51801;DHT22;37855;53.204;6.568;2024-03-07T12:59:38;5.80;76.50
51801;DHT22;37855;53.204;6.568;2024-03-07T13:02:08;5.80;75.90
51801;DHT22;37855;53.204;6.568;2024-03-07T13:04:34;5.90;76.40
51801;DHT22;37855;53.204;6.568;2024-03-07T13:07:03;6.00;76.10
51801;DHT22;37855;53.204;6.568;2024-03-07T13:09:33;5.90;75.20
51801;DHT22;37855;53.204;6.568;2024-03-07T13:11:59;5.80;75.80
51801;DHT22;37855;53.204;6.568;2024-03-07T13:14:30;5.70;76.00
51801;DHT22;37855;53.204;6.568;2024-03-07T13:17:04;5.80;76.50
51801;DHT22;37855;53.204;6.568;2024-03-07T13:19:32;5.80;76.30
51801;DHT22;37855;53.204;6.568;2024-03-07T13:21:58;5.80;76.00
51801;DHT22;37855;53.204;6.568;2024-03-07T13:24:25;5.70;76.00
51801;DHT22;37855;53.204;6.568;2024-03-07T13:26:51;5.70;76.30
51801;DHT22;37855;53.204;6.568;2024-03-07T13:29:17;5.70;75.90
51801;DHT22;37855;53.204;6.568;2024-03-07T13:31:49;5.60;76.30
51801;DHT22;37855;53.204;6.568;2024-03-07T13:34:15;5.60;76.50
51801;DHT22;37855;53.204;6.568;2024-03-07T13:36:41;5.60;76.20
51801;DHT22;37855;53.204;6.568;2024-03-07T13:39:08;5.60;76.40
51801;DHT22;37855;53.204;6.568;2024-03-07T13:41:37;5.60;76.20
51801;DHT22;37855;53.204;6.568;2024-03-07T13:44:04;5.60;76.60
51801;DHT22;37855;53.204;6.568;2024-03-07T13:46:30;5.60;76.60
51801;DHT22;37855;53.204;6.568;2024-03-07T13:49:01;5.60;76.70
51801;DHT22;37855;53.204;6.568;2024-03-07T13:51:35;5.60;76.60
51801;DHT22;37855;53.204;6.568;2024-03-07T13:54:02;5.60;76.40
51801;DHT22;37855;53.204;6.568;2024-03-07T13:57:01;5.70;76.40
51801;DHT22;37855;53.204;6.568;2024-03-07T14:11:01;6.00;76.00
51801;DHT22;37855;53.204;6.568;2024-03-07T14:25:48;6.10;75.50
51801;DHT22;37855;53.204;6.568;2024-03-07T14:28:33;6.10;75.40
51801;DHT22;37855;53.204;6.568;2024-03-07T14:31:03;6.20;74.80
51801;DHT22;37855;53.204;6.568;2024-03-07T14:34:06;6.20;75.00
51801;DHT22;37855;53.204;6.568;2024-03-07T14:36:44;6.20;75.00
51801;DHT22;37855;53.204;6.568;2024-03-07T14:39:11;6.20;75.30
51801;DHT22;37855;53.204;6.568;2024-03-07T14:44:19;6.30;75.30
51801;DHT22;37855;53.204;6.568;2024-03-07T14:46:52;6.30;75.20
51801;DHT22;37855;53.204;6.568;2024-03-07T14:49:19;6.30;74.80
51801;DHT22;37855;53.204;6.568;2024-03-07T14:51:46;6.20;74.70
51801;DHT22;37855;53.204;6.568;2024-03-07T14:54:12;6.30;75.00
51801;DHT22;37855;53.204;6.568;2024-03-07T14:56:38;6.20;75.10
51801;DHT22;37855;53.204;6.568;2024-03-07T14:59:04;6.30;74.90
51801;DHT22;37855;53.204;6.568;2024-03-07T15:01:31;6.30;75.30
51801;DHT22;37855;53.204;6.568;2024-03-07T15:03:59;6.30;75.50
51801;DHT22;37855;53.204;6.568;2024-03-07T15:06:25;6.40;75.60
51801;DHT22;37855;53.204;6.568;2024-03-07T15:08:50;6.40;75.80
51801;DHT22;37855;53.204;6.568;2024-03-07T15:11:42;6.50;74.80
51801;DHT22;37855;53.204;6.568;2024-03-07T15:14:08;6.50;75.20
51801;DHT22;37855;53.204;6.568;2024-03-07T15:16:38;6.50;75.10
51801;DHT22;37855;53.204;6.568;2024-03-07T15:19:05;6.60;75.20
51801;DHT22;37855;53.204;6.568;2024-03-07T15:21:33;6.60;74.90
51801;DHT22;37855;53.204;6.568;2024-03-07T15:23:59;6.60;74.90
51801;DHT22;37855;53.204;6.568;2024-03-07T15:26:27;6.60;74.30
51801;DHT22;37855;53.204;6.568;2024-03-07T15:28:55;6.60;74.20
51801;DHT22;37855;53.204;6.568;2024-03-07T15:31:22;6.60;74.20
51801;DHT22;37855;53.204;6.568;2024-03-07T15:33:57;6.60;74.50
51801;DHT22;37855;53.204;6.568;2024-03-07T15:36:24;6.60;74.30
51801;DHT22;37855;53.204;6.568;2024-03-07T15:38:54;6.60;74.60
51801;DHT22;37855;53.204;6.568;2024-03-07T15:41:23;6.60;74.70
51801;DHT22;37855;53.204;6.568;2024-03-07T15:43:50;6.50;73.70
51801;DHT22;37855;53.204;6.568;2024-03-07T15:46:15;6.50;74.00
51801;DHT22;37855;53.204;6.568;2024-03-07T15:48:44;6.50;73.50
51801;DHT22;37855;53.204;6.568;2024-03-07T15:51:11;6.50;73.00
51801;DHT22;37855;53.204;6.568;2024-03-07T15:53:37;6.50;73.20
51801;DHT22;37855;53.204;6.568;2024-03-07T15:56:03;6.50;72.70
51801;DHT22;37855;53.204;6.568;2024-03-07T15:58:32;6.50;72.10
51801;DHT22;37855;53.204;6.568;2024-03-07T16:00:58;6.50;71.80
51801;DHT22;37855;53.204;6.568;2024-03-07T16:03:23;6.50;71.80
51801;DHT22;37855;53.204;6.568;2024-03-07T16:05:50;6.60;72.90
51801;DHT22;37855;53.204;6.568;2024-03-07T16:08:19;6.60;72.20
51801;DHT22;37855;53.204;6.568;2024-03-07T16:10:46;6.60;72.60
51801;DHT22;37855;53.204;6.568;2024-03-07T16:13:13;6.60;72.40
51801;DHT22;37855;53.204;6.568;2024-03-07T16:15:41;6.60;72.50
51801;DHT22;37855;53.204;6.568;2024-03-07T16:18:09;6.60;72.30
51801;DHT22;37855;53.204;6.568;2024-03-07T16:20:35;6.60;72.90
51801;DHT22;37855;53.204;6.568;2024-03-07T16:23:02;6.60;72.10
51801;DHT22;37855;53.204;6.568;2024-03-07T16:25:33;6.50;72.40
51801;DHT22;37855;53.204;6.568;2024-03-07T16:28:05;6.50;72.50
51801;DHT22;37855;53.204;6.568;2024-03-07T16:30:32;6.40;72.60